GBYD/BJL METAR and TAF weather

Enter ICAO airport designator
Station Type Date Time Source
GBYD METAR 2022/09/23 18:00 UTC NOAA

GBYD 231800Z 25006KT 9999 SCT012 FEW018CB 30/24 Q1009 CB NE-S


Station Type Date Time Source
GBYD Decoded METAR 2022/09/23 18:00 UTC NOAA

Banjul / Yundum, Gambia, The (GBYD) 13-21N 016-48W 36M
Sep 23, 2022 - 02:00 PM EDT / 2022.09.23 1800 UTC
Wind: from the WSW (250 degrees) at 7 MPH (6 KT):0
Visibility: greater than 7 mile(s):0
Sky conditions: partly cloudy
Weather: Cumulonimbus clouds observed
Temperature: 86 F (30 C)
Heat index: 95.0 F (35.0 C):1
Dew Point: 75 F (24 C)
Relative Humidity: 70%
Pressure (altimeter): 29.80 in. Hg (1009 hPa)
ob: GBYD 231800Z 25006KT 9999 SCT012 FEW018CB 30/24 Q1009 CB NE-S
cycle: 18

Station Type Date Time Source
GBYD TAF 2022/09/26 06:42 UTC NOAA

TAF TAF GBYD 260500Z 2606/2712 20008KT 9999 SCT013
TEMPO 2614/2620 3000 TSRA BKN010 FEW020CB

Example: see airport list